createdAt,value
2016-12-16T00:00:04.694Z,5
2016-12-16T00:05:04.769Z,0
2016-12-16T00:10:04.617Z,1
2016-12-16T00:15:04.372Z,0
2016-12-16T00:20:04.910Z,0
2016-12-16T00:25:04.918Z,3
2016-12-16T00:30:04.334Z,2
2016-12-16T00:35:04.826Z,4
2016-12-16T00:40:04.440Z,3
2016-12-16T00:45:04.721Z,4
2016-12-16T00:50:04.258Z,2
2016-12-16T00:55:05.097Z,2
2016-12-16T01:00:04.189Z,0
2016-12-16T01:05:04.973Z,3
2016-12-16T01:10:04.947Z,2
2016-12-16T01:15:04.660Z,0
2016-12-16T01:20:05.153Z,5
2016-12-16T01:25:04.987Z,0
2016-12-16T01:30:04.520Z,5
2016-12-16T01:35:05.196Z,2
2016-12-16T01:40:05.346Z,2
2016-12-16T01:45:04.666Z,2
2016-12-16T01:50:05.160Z,0
2016-12-16T01:55:04.655Z,0
2016-12-16T02:00:04.399Z,5
2016-12-16T02:05:05.113Z,0
2016-12-16T02:10:04.129Z,0
2016-12-16T02:15:04.754Z,0
2016-12-16T02:20:05.254Z,0
2016-12-16T02:25:04.937Z,0
2016-12-16T02:30:04.773Z,0
2016-12-16T02:35:04.346Z,0
2016-12-16T02:40:04.160Z,0
2016-12-16T02:45:04.662Z,0
2016-12-16T02:50:04.461Z,0
2016-12-16T02:55:04.372Z,0
2016-12-16T03:00:05.744Z,0
2016-12-16T03:05:07.311Z,0
2016-12-16T03:10:04.680Z,0
2016-12-16T03:15:04.465Z,0
2016-12-16T03:20:04.222Z,0
2016-12-16T03:25:04.732Z,0
2016-12-16T03:30:04.784Z,0
2016-12-16T03:35:04.546Z,0
2016-12-16T03:40:04.409Z,0
2016-12-16T03:45:05.073Z,0
2016-12-16T03:50:04.526Z,0
2016-12-16T03:55:04.230Z,0
2016-12-16T04:00:05.206Z,0
2016-12-16T04:05:04.846Z,0
2016-12-16T04:10:04.444Z,0
2016-12-16T04:15:04.262Z,0
2016-12-16T04:20:04.955Z,0
2016-12-16T04:25:04.794Z,0
2016-12-16T04:30:05.081Z,0
2016-12-16T04:35:04.959Z,0
2016-12-16T04:40:04.743Z,0
2016-12-16T04:45:04.888Z,0
2016-12-16T04:50:04.326Z,0
2016-12-16T04:55:05.067Z,0
2016-12-16T05:00:05.275Z,0
2016-12-16T05:05:04.983Z,0
2016-12-16T05:10:05.156Z,0
2016-12-16T05:15:04.308Z,0
2016-12-16T05:20:04.704Z,0
2016-12-16T05:25:05.235Z,0
2016-12-16T05:30:04.720Z,0
2016-12-16T05:35:04.670Z,0
2016-12-16T05:40:04.461Z,0
2016-12-16T05:45:04.905Z,0
2016-12-16T05:50:04.347Z,0
2016-12-16T05:55:04.886Z,0
2016-12-16T06:00:04.182Z,0
2016-12-16T06:05:04.400Z,0
2016-12-16T06:10:04.799Z,0
2016-12-16T06:15:04.332Z,0
2016-12-16T06:20:04.399Z,0
2016-12-16T06:25:04.633Z,0
2016-12-16T06:30:04.636Z,0
2016-12-16T06:35:05.147Z,0
2016-12-16T06:40:04.928Z,0
2016-12-16T06:45:04.641Z,0
2016-12-16T06:50:04.630Z,0
2016-12-16T06:55:04.686Z,0
2016-12-16T07:00:04.401Z,0
2016-12-16T07:05:04.452Z,0
2016-12-16T07:10:04.318Z,0
2016-12-16T07:15:04.582Z,0
2016-12-16T07:20:04.558Z,0
2016-12-16T07:25:04.708Z,0
2016-12-16T07:30:04.893Z,0
2016-12-16T07:35:04.938Z,0
2016-12-16T07:40:04.461Z,0
2016-12-16T07:45:04.279Z,0
2016-12-16T07:50:05.054Z,0
2016-12-16T07:55:05.037Z,0
2016-12-16T08:00:04.432Z,0
2016-12-16T08:05:04.883Z,0
2016-12-16T08:10:04.337Z,0
2016-12-16T08:15:04.736Z,0
2016-12-16T08:20:04.503Z,0
2016-12-16T08:25:04.219Z,0
2016-12-16T08:30:04.978Z,0
2016-12-16T08:35:04.286Z,0
2016-12-16T08:40:04.232Z,0
2016-12-16T08:45:04.948Z,0
2016-12-16T08:50:04.814Z,0
2016-12-16T08:55:04.570Z,0
2016-12-16T09:00:04.707Z,0
2016-12-16T09:05:04.241Z,0
2016-12-16T09:10:04.192Z,0
2016-12-16T09:15:04.873Z,0
2016-12-16T09:20:04.199Z,0
2016-12-16T09:25:04.768Z,0
2016-12-16T09:30:04.267Z,1
2016-12-16T09:35:04.201Z,3
2016-12-16T09:40:04.171Z,0
2016-12-16T09:45:04.808Z,1
2016-12-16T09:50:05.197Z,0
2016-12-16T09:55:04.411Z,0
2016-12-16T10:00:04.616Z,0
2016-12-16T10:05:04.450Z,2
2016-12-16T10:10:04.953Z,3
2016-12-16T10:15:04.766Z,3
2016-12-16T10:20:05.027Z,2
2016-12-16T10:25:04.955Z,3
2016-12-16T10:30:04.224Z,3
2016-12-16T10:35:04.447Z,7
2016-12-16T10:40:04.900Z,3
2016-12-16T10:45:04.239Z,4
2016-12-16T10:50:04.210Z,5
2016-12-16T10:55:04.669Z,2
2016-12-16T11:00:05.129Z,7
2016-12-16T11:05:04.495Z,5
2016-12-16T11:10:04.853Z,6
2016-12-16T11:15:04.290Z,5
2016-12-16T11:20:04.724Z,3
2016-12-16T11:25:04.519Z,2
2016-12-16T11:30:05.005Z,3
2016-12-16T11:35:04.736Z,3
2016-12-16T11:40:05.131Z,6
2016-12-16T11:45:04.879Z,2
2016-12-16T11:50:04.295Z,5
2016-12-16T11:55:04.905Z,6
2016-12-16T12:00:04.695Z,4
2016-12-16T12:05:04.299Z,4
2016-12-16T12:10:05.052Z,2
2016-12-16T12:15:04.416Z,4
2016-12-16T12:20:04.833Z,3
2016-12-16T12:25:04.521Z,2
2016-12-16T12:30:04.551Z,2
2016-12-16T12:35:04.804Z,4
2016-12-16T12:40:04.481Z,3
2016-12-16T12:45:05.088Z,3
2016-12-16T12:50:04.897Z,4
2016-12-16T12:55:04.540Z,3
2016-12-16T13:00:05.264Z,3
2016-12-16T13:05:04.876Z,3
2016-12-16T13:10:04.119Z,6
2016-12-16T13:15:04.541Z,7
2016-12-16T13:20:04.079Z,4
2016-12-16T13:25:04.717Z,6
2016-12-16T13:30:04.878Z,4
2016-12-16T13:35:04.622Z,2
2016-12-16T13:40:04.240Z,2
2016-12-16T13:45:04.354Z,3
2016-12-16T13:50:04.368Z,3
2016-12-16T13:55:04.729Z,0
2016-12-16T14:00:04.802Z,0
2016-12-16T14:05:04.644Z,3
2016-12-16T14:10:05.111Z,2
2016-12-16T14:15:04.682Z,1
2016-12-16T14:20:04.558Z,1
2016-12-16T14:25:04.320Z,2
2016-12-16T14:30:04.365Z,1
2016-12-16T14:35:04.670Z,0
2016-12-16T14:50:04.412Z,2
2016-12-16T14:55:04.569Z,2
2016-12-16T15:00:05.063Z,0
2016-12-16T15:05:04.238Z,0
2016-12-16T15:10:04.422Z,1
2016-12-16T15:15:04.878Z,0
2016-12-16T15:20:04.690Z,0
2016-12-16T15:25:04.843Z,0
2016-12-16T15:30:04.540Z,0
2016-12-16T15:35:04.790Z,0
2016-12-16T15:40:04.852Z,0
2016-12-16T15:45:05.174Z,0
2016-12-16T15:50:04.729Z,0
2016-12-16T15:55:05.161Z,0
2016-12-16T16:00:04.431Z,0
2016-12-16T16:05:04.283Z,0
2016-12-16T16:10:04.222Z,0
2016-12-16T16:15:04.361Z,0
2016-12-16T16:20:04.293Z,0
2016-12-16T16:25:04.206Z,2
2016-12-16T16:30:04.740Z,2
2016-12-16T16:35:04.465Z,0
2016-12-16T16:40:04.220Z,1
2016-12-16T16:45:04.830Z,1
2016-12-16T16:50:04.459Z,2
2016-12-16T16:55:04.357Z,0
2016-12-16T17:00:05.331Z,0
2016-12-16T17:05:04.363Z,0
2016-12-16T17:10:05.127Z,0
2016-12-16T17:15:04.804Z,0
2016-12-16T17:20:04.305Z,0
2016-12-16T17:25:04.432Z,0
2016-12-16T17:30:04.810Z,0
2016-12-16T17:35:04.613Z,0
2016-12-16T17:40:04.247Z,0
2016-12-16T17:45:04.344Z,0
2016-12-16T17:50:04.705Z,0
2016-12-16T17:55:04.264Z,0
2016-12-16T18:00:04.789Z,0
2016-12-16T18:05:07.121Z,0
2016-12-16T18:10:06.972Z,0
2016-12-16T18:15:04.295Z,0
2016-12-16T18:20:04.669Z,0
2016-12-16T18:25:04.225Z,0
2016-12-16T18:30:05.181Z,0
2016-12-16T18:35:04.537Z,0
2016-12-16T18:40:05.077Z,0
2016-12-16T18:45:04.515Z,0
2016-12-16T18:50:04.968Z,0
2016-12-16T18:55:04.345Z,0
2016-12-16T19:00:04.293Z,0
2016-12-16T19:05:04.300Z,0
2016-12-16T19:10:04.743Z,0
2016-12-16T19:15:04.669Z,0
2016-12-16T19:20:04.672Z,0
2016-12-16T19:25:04.703Z,0
2016-12-16T19:30:04.478Z,0
2016-12-16T19:35:05.161Z,0
2016-12-16T19:40:04.280Z,0
2016-12-16T19:45:04.464Z,0
2016-12-16T19:50:05.094Z,1
2016-12-16T19:55:04.282Z,0
2016-12-16T20:00:04.638Z,2
2016-12-16T20:05:04.846Z,0
2016-12-16T20:10:04.893Z,2
2016-12-16T20:15:04.967Z,0
2016-12-16T20:20:04.794Z,0
2016-12-16T20:25:04.557Z,0
2016-12-16T20:30:04.673Z,0
2016-12-16T20:35:04.828Z,1
2016-12-16T20:40:04.202Z,1
2016-12-16T20:45:05.194Z,0
2016-12-16T20:50:05.020Z,1
2016-12-16T20:55:04.954Z,0
2016-12-16T21:00:05.171Z,1
2016-12-16T21:05:05.009Z,0
2016-12-16T21:10:05.111Z,0
2016-12-16T21:15:04.754Z,0
2016-12-16T21:20:04.549Z,0
2016-12-16T21:25:04.048Z,0
2016-12-16T21:30:04.914Z,0
2016-12-16T21:35:04.780Z,0
2016-12-16T21:40:04.706Z,0
2016-12-16T21:45:04.369Z,0
2016-12-16T21:50:04.768Z,0
2016-12-16T21:55:04.473Z,0
2016-12-16T22:00:04.944Z,0
2016-12-16T22:05:04.575Z,0
2016-12-16T22:10:04.409Z,0
2016-12-16T22:15:04.862Z,0
2016-12-16T22:20:04.362Z,0
2016-12-16T22:25:04.696Z,0
2016-12-16T22:30:04.959Z,0
2016-12-16T22:35:04.626Z,0
2016-12-16T22:40:04.743Z,2
2016-12-16T22:45:04.814Z,0
2016-12-16T22:50:04.282Z,0
2016-12-16T22:55:04.763Z,2
2016-12-16T23:00:04.488Z,0
2016-12-16T23:05:05.045Z,1
2016-12-16T23:10:04.465Z,1
2016-12-16T23:15:04.453Z,2
2016-12-16T23:20:04.933Z,2
2016-12-16T23:25:04.722Z,0
2016-12-16T23:30:04.963Z,2
2016-12-16T23:35:04.749Z,0
2016-12-16T23:40:04.817Z,0
2016-12-16T23:45:04.572Z,0
2016-12-16T23:50:04.147Z,2
2016-12-16T23:55:04.863Z,1
